createdAt,value
2023-05-19T00:00:33.082Z,8.73
2023-05-19T00:03:23.860Z,11.13
2023-05-19T00:06:12.466Z,8.77
2023-05-19T00:09:02.797Z,11.10
2023-05-19T00:11:51.621Z,10.73
2023-05-19T00:14:40.207Z,9.88
2023-05-19T00:17:28.540Z,11.60
2023-05-19T00:20:18.115Z,9.53
2023-05-19T00:23:06.194Z,9.35
2023-05-19T00:25:54.267Z,9.15
2023-05-19T00:28:42.340Z,11.43
2023-05-19T00:31:31.669Z,10.93
2023-05-19T00:34:19.813Z,9.97
2023-05-19T00:37:09.312Z,10.15
2023-05-19T00:39:58.100Z,11.85
2023-05-19T00:42:46.126Z,11.10
2023-05-19T00:45:34.257Z,10.25
2023-05-19T00:48:22.753Z,9.63
2023-05-19T00:51:14.508Z,8.90
2023-05-19T00:54:04.042Z,12.10
2023-05-19T00:56:52.200Z,13.07
2023-05-19T00:59:40.358Z,11.05
2023-05-19T01:02:29.761Z,9.07
2023-05-19T01:05:18.141Z,13.25
2023-05-19T01:08:06.915Z,11.88
2023-05-19T01:10:56.508Z,10.85
2023-05-19T01:13:45.293Z,10.10
2023-05-19T01:16:40.032Z,9.40
2023-05-19T01:19:46.720Z,13.02
2023-05-19T01:23:11.058Z,13.45
2023-05-19T01:26:26.021Z,11.13
2023-05-19T01:29:29.355Z,11.85
2023-05-19T01:32:22.139Z,10.13
2023-05-19T01:35:13.693Z,11.15
2023-05-19T01:38:02.709Z,13.60
2023-05-19T01:40:53.209Z,12.07
2023-05-19T01:43:41.752Z,13.38
2023-05-19T01:46:30.311Z,10.17
2023-05-19T01:49:20.096Z,13.55
2023-05-19T01:52:08.388Z,11.98
2023-05-19T01:54:56.441Z,11.77
2023-05-19T01:57:52.589Z,10.85
2023-05-19T02:00:52.476Z,11.27
2023-05-19T02:03:59.876Z,9.43
2023-05-19T02:06:56.392Z,10.55
2023-05-19T02:09:54.003Z,12.80
2023-05-19T02:12:42.658Z,14.93
2023-05-19T02:15:36.170Z,11.00
2023-05-19T02:18:25.187Z,10.82
2023-05-19T02:21:13.558Z,12.55
2023-05-19T02:24:02.965Z,10.43
2023-05-19T02:26:51.913Z,12.85
2023-05-19T02:29:40.115Z,15.27
2023-05-19T02:32:28.234Z,14.18
2023-05-19T02:35:16.702Z,11.73
2023-05-19T02:38:04.748Z,15.65
2023-05-19T02:40:54.221Z,11.45
2023-05-19T02:43:42.300Z,12.93
2023-05-19T02:46:30.455Z,16.50
2023-05-19T02:49:18.770Z,12.13
2023-05-19T02:52:07.501Z,12.40
2023-05-19T02:54:55.508Z,11.80
2023-05-19T02:57:44.995Z,11.87
2023-05-19T03:00:33.325Z,14.02
2023-05-19T03:03:21.612Z,10.98
2023-05-19T03:06:09.727Z,12.77
2023-05-19T03:08:57.703Z,9.55
2023-05-19T03:11:45.740Z,13.87
2023-05-19T03:14:37.678Z,13.60
2023-05-19T03:17:25.948Z,12.05
2023-05-19T03:20:15.798Z,10.48
2023-05-19T03:23:03.742Z,12.55
2023-05-19T03:25:54.033Z,12.53
2023-05-19T03:28:42.058Z,11.00
2023-05-19T03:31:31.613Z,12.38
2023-05-19T03:34:19.620Z,12.82
2023-05-19T03:37:07.901Z,11.90
2023-05-19T03:39:56.032Z,14.57
2023-05-19T03:42:44.072Z,12.98
2023-05-19T03:45:32.098Z,13.02
2023-05-19T03:48:21.521Z,13.45
2023-05-19T03:51:09.519Z,14.90
2023-05-19T03:53:57.488Z,14.23
2023-05-19T03:56:46.020Z,12.35
2023-05-19T03:59:35.304Z,14.52
2023-05-19T04:02:23.664Z,15.68
2023-05-19T04:05:13.059Z,13.25
2023-05-19T04:08:01.175Z,14.83
2023-05-19T04:10:49.180Z,13.65
2023-05-19T04:13:37.204Z,15.05
2023-05-19T04:16:25.467Z,12.57
2023-05-19T04:19:13.928Z,15.98
2023-05-19T04:22:03.349Z,14.53
2023-05-19T04:24:53.005Z,12.88
2023-05-19T04:27:41.104Z,13.85
2023-05-19T04:30:29.271Z,13.10
2023-05-19T04:33:17.874Z,13.90
2023-05-19T04:36:08.597Z,22.23
2023-05-19T04:39:02.444Z,12.57
2023-05-19T04:41:50.459Z,13.43
2023-05-19T04:44:40.204Z,14.05
2023-05-19T04:47:30.134Z,12.00
2023-05-19T04:50:18.238Z,13.03
2023-05-19T04:53:07.021Z,11.68
2023-05-19T04:55:56.701Z,14.18
2023-05-19T04:58:45.035Z,12.85
2023-05-19T05:01:33.882Z,15.02
2023-05-19T05:04:22.082Z,12.67
2023-05-19T05:07:10.041Z,13.27
2023-05-19T05:09:58.173Z,14.90
2023-05-19T05:12:48.215Z,14.82
2023-05-19T05:15:36.718Z,12.70
2023-05-19T05:18:25.441Z,14.40
2023-05-19T05:21:14.108Z,14.88
2023-05-19T05:24:02.676Z,14.70
2023-05-19T05:26:51.244Z,12.85
2023-05-19T05:29:40.553Z,12.35
2023-05-19T05:32:28.730Z,15.10
2023-05-19T05:35:16.906Z,13.68
2023-05-19T05:38:05.363Z,15.20
2023-05-19T05:40:53.911Z,13.50
2023-05-19T05:43:41.902Z,13.40
2023-05-19T05:46:33.645Z,16.90
2023-05-19T05:49:22.380Z,13.07
2023-05-19T05:52:13.161Z,12.25
2023-05-19T05:55:01.735Z,15.50
2023-05-19T05:57:50.483Z,11.73
2023-05-19T06:00:38.612Z,12.43
2023-05-19T06:03:27.993Z,16.80
2023-05-19T06:06:16.234Z,11.88
2023-05-19T06:09:04.416Z,14.27
2023-05-19T06:11:52.461Z,12.50
2023-05-19T06:14:40.659Z,11.30
2023-05-19T06:17:28.710Z,12.93
2023-05-19T06:20:20.025Z,10.68
2023-05-19T06:23:08.037Z,12.32
2023-05-19T06:25:56.617Z,12.35
2023-05-19T06:28:44.712Z,14.93
2023-05-19T06:31:33.655Z,12.63
2023-05-19T06:34:21.858Z,11.40
2023-05-19T06:37:11.841Z,10.85
2023-05-19T06:39:59.933Z,11.85
2023-05-19T06:42:48.033Z,12.40
2023-05-19T06:45:36.143Z,12.07
2023-05-19T06:48:24.132Z,11.90
2023-05-19T06:51:12.333Z,13.77
2023-05-19T06:54:01.709Z,10.63
2023-05-19T06:56:50.110Z,11.73
2023-05-19T06:59:40.799Z,13.48
2023-05-19T07:02:28.959Z,13.80
2023-05-19T07:05:17.020Z,13.82
2023-05-19T07:08:06.861Z,15.13
2023-05-19T07:10:56.337Z,13.23
2023-05-19T07:13:44.305Z,10.85
2023-05-19T07:16:32.381Z,13.43
2023-05-19T07:19:20.691Z,12.40
2023-05-19T07:22:08.813Z,15.13
2023-05-19T07:24:57.083Z,13.97
2023-05-19T07:27:46.714Z,11.73
2023-05-19T07:30:35.073Z,10.35
2023-05-19T07:33:23.602Z,12.23
2023-05-19T07:36:11.875Z,10.88
2023-05-19T07:38:59.894Z,12.10
2023-05-19T07:41:55.607Z,11.80
2023-05-19T07:44:45.098Z,12.50
2023-05-19T07:47:33.142Z,10.90
2023-05-19T07:50:21.509Z,13.60
2023-05-19T07:53:09.469Z,12.00
2023-05-19T07:55:58.616Z,14.38
2023-05-19T07:58:46.814Z,11.57
2023-05-19T08:01:36.397Z,11.55
2023-05-19T08:04:24.416Z,11.38
2023-05-19T08:07:12.484Z,9.07
2023-05-19T08:10:00.595Z,13.32
2023-05-19T08:12:48.674Z,10.43
2023-05-19T08:15:36.749Z,12.13
2023-05-19T08:18:26.365Z,11.23
2023-05-19T08:21:14.380Z,11.00
2023-05-19T08:24:02.580Z,12.70
2023-05-19T08:26:51.721Z,12.10
2023-05-19T08:29:40.164Z,11.93
2023-05-19T08:32:28.247Z,10.23
2023-05-19T08:35:17.615Z,9.40
2023-05-19T08:38:05.612Z,10.00
2023-05-19T08:40:56.347Z,9.05
2023-05-19T08:43:45.151Z,10.90
2023-05-19T08:46:33.323Z,9.68
2023-05-19T08:49:27.682Z,9.27
2023-05-19T08:52:29.337Z,7.88
2023-05-19T08:55:27.619Z,10.40
2023-05-19T08:58:20.549Z,10.35
2023-05-19T09:01:08.863Z,7.95
2023-05-19T09:03:57.438Z,9.20
2023-05-19T09:06:45.642Z,9.75
2023-05-19T09:09:38.075Z,9.75
2023-05-19T09:12:27.332Z,10.00
2023-05-19T09:15:18.621Z,6.93
2023-05-19T09:18:11.145Z,8.50
2023-05-19T09:21:00.620Z,8.05
2023-05-19T09:23:49.652Z,9.73
2023-05-19T09:26:40.579Z,8.25
2023-05-19T09:29:28.570Z,9.45
2023-05-19T09:32:26.134Z,7.40
2023-05-19T09:35:17.090Z,8.00
2023-05-19T09:38:05.311Z,8.95
2023-05-19T09:40:53.600Z,8.95
2023-05-19T09:43:43.186Z,8.40
2023-05-19T09:46:31.253Z,7.10
2023-05-19T09:49:22.806Z,9.07
2023-05-19T09:52:12.184Z,6.60
2023-05-19T09:55:02.675Z,8.88
2023-05-19T09:57:51.707Z,7.50
2023-05-19T10:00:41.917Z,7.10
2023-05-19T10:03:30.862Z,6.20
2023-05-19T10:06:19.206Z,6.60
2023-05-19T10:09:07.693Z,6.35
2023-05-19T10:11:57.036Z,11.02
2023-05-19T10:14:45.164Z,7.83
2023-05-19T10:17:36.763Z,8.98
2023-05-19T10:20:24.826Z,6.47
2023-05-19T10:23:12.911Z,6.03
2023-05-19T10:26:04.095Z,4.40
2023-05-19T10:28:52.482Z,6.17
2023-05-19T10:31:41.861Z,5.93
2023-05-19T10:34:57.114Z,5.13
2023-05-19T10:37:51.506Z,6.30
2023-05-19T10:40:44.932Z,5.05
2023-05-19T10:43:45.020Z,8.17
2023-05-19T10:46:33.197Z,6.47
2023-05-19T10:49:22.702Z,6.65
2023-05-19T10:52:26.613Z,6.78
2023-05-19T10:55:17.578Z,6.55
2023-05-19T10:58:05.729Z,6.67
2023-05-19T11:01:01.524Z,6.57
2023-05-19T11:03:52.288Z,8.32
2023-05-19T11:06:41.752Z,8.35
2023-05-19T11:09:39.969Z,7.43
2023-05-19T11:12:28.663Z,7.50
2023-05-19T11:15:17.294Z,8.27
2023-05-19T11:18:05.878Z,6.90
2023-05-19T11:20:59.005Z,7.22
2023-05-19T11:23:47.202Z,6.68
2023-05-19T11:27:10.548Z,8.07
2023-05-19T11:30:21.144Z,7.10
2023-05-19T11:33:09.949Z,8.00
2023-05-19T11:35:59.072Z,7.60
2023-05-19T11:38:48.340Z,8.57
2023-05-19T11:41:40.900Z,11.43
2023-05-19T11:44:30.466Z,8.23
2023-05-19T11:47:18.575Z,6.35
2023-05-19T11:50:12.728Z,7.28
2023-05-19T11:53:02.567Z,8.23
2023-05-19T11:55:51.739Z,7.90
2023-05-19T11:58:40.805Z,8.50
2023-05-19T12:01:31.897Z,7.82
2023-05-19T12:04:20.610Z,8.50
2023-05-19T12:07:08.762Z,8.95
2023-05-19T12:09:58.209Z,11.67
2023-05-19T12:12:46.846Z,7.70
2023-05-19T12:15:35.234Z,7.55
2023-05-19T12:18:28.835Z,8.60
2023-05-19T12:21:18.647Z,10.48
2023-05-19T12:24:07.978Z,9.43
2023-05-19T12:27:07.445Z,7.70
2023-05-19T12:29:57.350Z,7.68
2023-05-19T12:32:46.847Z,8.38
2023-05-19T12:35:38.953Z,8.52
2023-05-19T12:38:27.071Z,8.03
2023-05-19T12:41:15.600Z,10.00
2023-05-19T12:44:18.296Z,8.10
2023-05-19T12:47:07.790Z,8.02
2023-05-19T12:49:56.843Z,8.18
2023-05-19T12:52:48.319Z,7.80
2023-05-19T12:55:40.861Z,8.73
2023-05-19T12:58:29.188Z,8.23
2023-05-19T13:01:18.480Z,8.48
2023-05-19T13:04:07.424Z,9.30
2023-05-19T13:06:55.955Z,9.33
2023-05-19T13:09:45.589Z,8.48
2023-05-19T13:12:33.841Z,8.45
2023-05-19T13:15:24.235Z,9.27
2023-05-19T13:18:13.892Z,7.18
2023-05-19T13:21:02.524Z,8.33
2023-05-19T13:23:51.292Z,10.18
2023-05-19T13:26:41.805Z,10.55
2023-05-19T13:29:29.935Z,9.68
2023-05-19T13:32:18.347Z,11.30
2023-05-19T13:35:23.221Z,6.47
2023-05-19T13:38:11.751Z,10.35
2023-05-19T13:41:02.537Z,11.77
2023-05-19T13:43:51.891Z,8.48
2023-05-19T13:46:45.535Z,8.40
2023-05-19T13:49:34.114Z,6.40
2023-05-19T13:52:22.762Z,7.70
2023-05-19T13:55:10.961Z,7.63
2023-05-19T13:57:59.142Z,8.23
2023-05-19T14:00:49.626Z,9.30
2023-05-19T14:03:37.820Z,7.73
2023-05-19T14:06:25.848Z,9.80
2023-05-19T14:09:14.340Z,7.32
2023-05-19T14:12:02.379Z,7.38
2023-05-19T14:14:50.728Z,7.47
2023-05-19T14:17:40.404Z,8.70
2023-05-19T14:20:29.455Z,7.90
2023-05-19T14:23:20.178Z,6.78
2023-05-19T14:26:08.234Z,9.23
2023-05-19T14:28:59.520Z,8.68
2023-05-19T14:31:47.690Z,6.93
2023-05-19T14:34:37.224Z,7.35
2023-05-19T14:37:26.546Z,9.30
2023-05-19T14:40:17.605Z,8.13
2023-05-19T14:43:05.615Z,8.48
2023-05-19T14:45:53.763Z,7.37
2023-05-19T14:48:41.796Z,6.43
2023-05-19T14:51:31.669Z,7.00
2023-05-19T14:54:19.833Z,7.75
2023-05-19T14:57:08.308Z,7.68
2023-05-19T14:59:56.463Z,7.73
2023-05-19T15:02:45.233Z,6.68
2023-05-19T15:05:33.270Z,6.65
2023-05-19T15:08:23.404Z,9.10
2023-05-19T15:11:11.609Z,8.93
2023-05-19T15:13:59.665Z,7.20
2023-05-19T15:16:47.874Z,6.47
2023-05-19T15:19:36.059Z,6.30
2023-05-19T15:22:24.208Z,6.60
2023-05-19T15:25:13.665Z,8.38
2023-05-19T15:28:01.669Z,8.17
2023-05-19T15:30:49.711Z,7.88
2023-05-19T15:33:37.737Z,7.97
2023-05-19T15:36:25.720Z,8.73
2023-05-19T15:39:14.286Z,7.28
2023-05-19T15:42:03.710Z,7.47
2023-05-19T15:44:51.724Z,6.45
2023-05-19T15:47:39.735Z,6.88
2023-05-19T15:50:28.235Z,6.72
2023-05-19T15:53:16.350Z,7.30
2023-05-19T15:56:04.998Z,5.67
2023-05-19T15:58:54.415Z,5.60
2023-05-19T16:01:42.507Z,7.32
2023-05-19T16:04:30.686Z,6.82
2023-05-19T16:07:18.779Z,7.20
2023-05-19T16:10:07.647Z,8.03
2023-05-19T16:12:55.738Z,6.97
2023-05-19T16:15:45.148Z,8.45
2023-05-19T16:18:33.450Z,7.78
2023-05-19T16:21:21.880Z,7.05
2023-05-19T16:24:12.534Z,8.53
2023-05-19T16:27:00.856Z,7.25
2023-05-19T16:29:48.853Z,10.75
2023-05-19T16:32:38.211Z,7.80
2023-05-19T16:35:27.748Z,6.88
2023-05-19T16:38:15.921Z,5.80
2023-05-19T16:41:05.221Z,6.15
2023-05-19T16:43:53.323Z,7.35
2023-05-19T16:46:41.511Z,7.25
2023-05-19T16:49:30.868Z,8.43
2023-05-19T16:52:19.111Z,7.93
2023-05-19T16:55:07.822Z,6.15
2023-05-19T16:57:55.870Z,7.95
2023-05-19T17:00:44.086Z,7.07
2023-05-19T17:03:32.757Z,9.27
2023-05-19T17:06:22.312Z,6.30
2023-05-19T17:09:10.484Z,9.23
2023-05-19T17:11:58.567Z,10.80
2023-05-19T17:14:46.660Z,9.18
2023-05-19T17:17:34.735Z,7.38
2023-05-19T17:20:22.823Z,7.45
2023-05-19T17:23:12.158Z,8.33
2023-05-19T17:26:00.163Z,9.30
2023-05-19T17:28:48.269Z,9.27
2023-05-19T17:31:39.324Z,8.82
2023-05-19T17:34:28.074Z,8.65
2023-05-19T17:37:17.584Z,11.10
2023-05-19T17:40:08.539Z,8.27
2023-05-19T17:42:56.566Z,8.82
2023-05-19T17:45:44.582Z,8.82
2023-05-19T17:48:32.888Z,7.93
2023-05-19T17:51:21.549Z,11.70
2023-05-19T17:54:10.120Z,10.68
2023-05-19T17:57:03.272Z,11.05
2023-05-19T17:59:52.068Z,13.02
2023-05-19T18:02:41.082Z,11.60
2023-05-19T18:05:29.482Z,8.70
2023-05-19T18:08:18.451Z,12.07
2023-05-19T18:11:06.998Z,9.20
2023-05-19T18:13:56.438Z,11.52
2023-05-19T18:16:44.574Z,10.25
2023-05-19T18:19:33.102Z,6.97
2023-05-19T18:22:21.255Z,11.55
2023-05-19T18:25:10.479Z,9.63
2023-05-19T18:27:58.500Z,9.18
2023-05-19T18:30:47.977Z,6.05
2023-05-19T18:33:36.055Z,7.63
2023-05-19T18:36:24.351Z,6.85
2023-05-19T18:39:12.587Z,8.68
2023-05-19T18:42:01.618Z,8.45
2023-05-19T18:44:50.753Z,8.93
2023-05-19T18:47:40.348Z,9.87
2023-05-19T18:50:28.605Z,8.85
2023-05-19T18:53:16.677Z,8.07
2023-05-19T18:56:04.943Z,9.45
2023-05-19T18:58:53.209Z,6.95
2023-05-19T19:01:41.430Z,10.67
2023-05-19T19:04:30.884Z,10.38
2023-05-19T19:07:18.899Z,8.27
2023-05-19T19:10:08.010Z,10.02
2023-05-19T19:12:57.771Z,8.27
2023-05-19T19:15:46.049Z,9.27
2023-05-19T19:18:34.560Z,10.68
2023-05-19T19:21:24.147Z,11.02
2023-05-19T19:24:13.600Z,8.38
2023-05-19T19:27:01.692Z,11.65
2023-05-19T19:29:49.676Z,11.27
2023-05-19T19:32:37.838Z,10.52
2023-05-19T19:35:26.433Z,11.05
2023-05-19T19:38:15.909Z,9.25
2023-05-19T19:41:03.922Z,12.57
2023-05-19T19:43:53.013Z,13.77
2023-05-19T19:46:41.270Z,13.88
2023-05-19T19:49:29.453Z,12.15
2023-05-19T19:52:18.198Z,11.50
2023-05-19T19:55:08.857Z,13.40
2023-05-19T19:57:56.961Z,10.93
2023-05-19T20:00:45.012Z,14.40
2023-05-19T20:03:33.622Z,15.50
2023-05-19T20:06:22.475Z,12.20
2023-05-19T20:09:10.661Z,13.52
2023-05-19T20:12:00.012Z,12.13
2023-05-19T20:14:48.467Z,10.27
2023-05-19T20:17:36.551Z,11.77
2023-05-19T20:20:24.561Z,13.68
2023-05-19T20:23:13.383Z,13.77
2023-05-19T20:26:12.094Z,14.60
2023-05-19T20:29:02.334Z,11.27
2023-05-19T20:31:50.610Z,12.00
2023-05-19T20:34:38.833Z,11.15
2023-05-19T20:37:26.860Z,12.57
2023-05-19T20:40:14.970Z,10.10
2023-05-19T20:43:03.043Z,11.75
2023-05-19T20:45:52.586Z,10.63
2023-05-19T20:48:40.672Z,10.70
2023-05-19T20:51:31.083Z,11.25
2023-05-19T20:54:20.199Z,13.40
2023-05-19T20:57:09.390Z,9.45
2023-05-19T20:59:57.452Z,13.48
2023-05-19T21:02:46.968Z,10.85
2023-05-19T21:05:35.595Z,13.32
2023-05-19T21:08:23.876Z,9.60
2023-05-19T21:11:11.898Z,12.85
2023-05-19T21:14:03.879Z,11.60
2023-05-19T21:16:53.849Z,14.30
2023-05-19T21:19:43.279Z,9.77
2023-05-19T21:22:31.331Z,11.37
2023-05-19T21:25:19.561Z,10.60
2023-05-19T21:28:07.581Z,10.90
2023-05-19T21:30:55.690Z,11.70
2023-05-19T21:33:44.088Z,10.73
2023-05-19T21:36:33.471Z,11.90
2023-05-19T21:39:21.551Z,11.68
2023-05-19T21:42:09.571Z,11.48
2023-05-19T21:44:57.864Z,12.48
2023-05-19T21:47:45.881Z,12.40
2023-05-19T21:50:37.381Z,10.53
2023-05-19T21:53:26.823Z,11.52
2023-05-19T21:57:00.234Z,11.80
2023-05-19T21:59:48.456Z,13.63
2023-05-19T22:02:36.574Z,11.20
2023-05-19T22:05:24.663Z,10.90
2023-05-19T22:08:12.698Z,12.43
2023-05-19T22:11:02.269Z,10.77
2023-05-19T22:13:50.287Z,10.07
2023-05-19T22:16:38.516Z,10.30
2023-05-19T22:19:26.845Z,10.60
2023-05-19T22:22:15.143Z,11.40
2023-05-19T22:25:03.536Z,10.57
2023-05-19T22:27:52.938Z,10.25
2023-05-19T22:30:42.221Z,10.40
2023-05-19T22:33:30.510Z,9.83
2023-05-19T22:36:18.831Z,11.27
2023-05-19T22:39:06.954Z,9.80
2023-05-19T22:41:54.976Z,11.48
2023-05-19T22:44:45.875Z,12.27
2023-05-19T22:47:34.116Z,10.00
2023-05-19T22:50:22.312Z,10.82
2023-05-19T22:53:10.495Z,11.65
2023-05-19T22:55:58.498Z,11.32
2023-05-19T22:58:46.537Z,9.25
2023-05-19T23:01:35.979Z,10.17
2023-05-19T23:04:25.390Z,9.85
2023-05-19T23:07:13.462Z,13.02
2023-05-19T23:10:01.638Z,10.02
2023-05-19T23:12:50.073Z,9.95
2023-05-19T23:15:38.063Z,9.90
2023-05-19T23:18:27.482Z,10.43
2023-05-19T23:21:15.553Z,12.70
2023-05-19T23:24:03.726Z,10.02
2023-05-19T23:26:52.072Z,9.77
2023-05-19T23:29:40.083Z,9.97
2023-05-19T23:32:28.208Z,14.40
2023-05-19T23:35:18.540Z,11.43
2023-05-19T23:38:06.714Z,11.18
2023-05-19T23:40:54.895Z,11.73
2023-05-19T23:43:42.968Z,10.80
2023-05-19T23:46:31.608Z,12.35
2023-05-19T23:49:19.811Z,12.38
2023-05-19T23:52:09.306Z,12.07
2023-05-19T23:54:57.278Z,12.20
2023-05-19T23:57:45.277Z,11.57
